Time;durP1;ratioP1;P1;durP2;ratioP2;P2;SDS_P1;SDS_P2;PMS_P1;PMS_P2;Temp;Humidity;BMP_temperature;BMP_pressure;BME280_temperature;BME280_humidity;BME280_pressure;Samples;Min_cycle;Max_cycle;Signal;HPM_P1;HPM_P2
2022/04/23 00:01:55;;;;;;;26.88;19.70;;;;;;;8.72;100.00;99332.09;5054600;28;20033;-86
2022/04/23 00:04:20;;;;;;;28.73;20.48;;;;;;;8.71;100.00;99327.72;5054367;28;20021;-86
2022/04/23 00:06:46;;;;;;;26.27;20.13;;;;;;;8.67;100.00;99326.06;5054317;28;20025;-85
2022/04/23 00:09:11;;;;;;;25.25;19.40;;;;;;;8.65;100.00;99323.50;5054210;28;20037;-85
2022/04/23 00:11:36;;;;;;;27.83;20.58;;;;;;;8.58;100.00;99325.50;5054070;28;20029;-85
2022/04/23 00:14:04;;;;;;;29.67;20.50;;;;;;;8.58;100.00;99319.28;5036189;28;20056;-85
2022/04/23 00:16:30;;;;;;;27.48;20.38;;;;;;;8.59;100.00;99316.59;5054024;28;20074;-85
2022/04/23 00:18:55;;;;;;;28.75;20.95;;;;;;;8.60;100.00;99318.34;5054211;28;20048;-85
2022/04/23 00:21:20;;;;;;;28.70;21.38;;;;;;;8.59;100.00;99311.28;5083192;22;20762;-84
2022/04/23 00:23:48;;;;;;;26.67;20.25;;;;;;;8.66;100.00;99311.06;5076923;28;20024;-84
2022/04/23 00:26:14;;;;;;;28.55;20.45;;;;;;;8.68;100.00;99318.06;5076691;28;20056;-86
2022/04/23 00:28:39;;;;;;;26.33;20.33;;;;;;;8.74;100.00;99308.94;5094711;28;20035;-85
2022/04/23 00:31:05;;;;;;;27.45;19.73;;;;;;;8.80;100.00;99303.41;5076173;28;20020;-85
2022/04/23 00:33:32;;;;;;;26.60;19.60;;;;;;;8.86;100.00;99306.75;5076213;28;20060;-85
2022/04/23 00:35:57;;;;;;;25.40;19.23;;;;;;;8.88;100.00;99305.75;5094365;28;20048;-85
2022/04/23 00:38:23;;;;;;;27.08;19.73;;;;;;;8.92;100.00;99306.50;5094704;28;20024;-85
2022/04/23 00:40:54;;;;;;;25.30;19.27;;;;;;;8.96;100.00;99309.91;5076067;28;20039;-85
2022/04/23 00:43:27;;;;;;;23.83;18.27;;;;;;;8.96;100.00;99308.13;5077028;28;20536;-85
2022/04/23 00:45:53;;;;;;;;;;;;;;;8.99;100.00;99302.69;5076398;28;20476;-86
2022/04/23 00:48:18;;;;;;;25.27;17.67;;;;;;;9.03;100.00;99301.63;5094756;28;19998;-86
2022/04/23 00:50:44;;;;;;;24.17;17.58;;;;;;;9.07;100.00;99301.50;5094262;28;20106;-86
2022/04/23 00:53:10;;;;;;;22.25;17.15;;;;;;;9.06;100.00;99305.97;5096735;28;20024;-86
2022/04/23 00:55:36;;;;;;;20.73;16.70;;;;;;;9.07;100.00;99304.19;5076093;28;20024;-86
2022/04/23 00:58:02;;;;;;;23.38;17.55;;;;;;;9.05;100.00;99313.09;5076094;28;20496;-85
2022/04/23 01:00:28;;;;;;;20.92;16.83;;;;;;;9.14;100.00;99305.66;5076084;28;20032;-86
2022/04/23 01:02:54;;;;;;;19.45;14.30;;;;;;;9.14;100.00;99309.19;5093810;28;20031;-84
2022/04/23 01:05:20;;;;;;;21.52;15.73;;;;;;;9.14;100.00;99298.53;5075961;28;20444;-86
2022/04/23 01:07:45;;;;;;;19.48;15.50;;;;;;;9.13;100.00;99296.78;5076222;28;20035;-85
2022/04/23 01:10:11;;;;;;;17.80;14.25;;;;;;;9.15;100.00;99304.72;5075634;28;20015;-85
2022/04/23 01:12:38;;;;;;;18.88;14.45;;;;;;;9.24;100.00;99300.81;5093548;28;20020;-86
2022/04/23 01:15:07;;;;;;;18.48;14.45;;;;;;;9.18;100.00;99296.59;5093769;28;20038;-85
2022/04/23 01:17:33;;;;;;;17.92;14.70;;;;;;;9.19;100.00;99301.03;5074732;28;20055;-86
2022/04/23 01:20:07;;;;;;;18.85;13.98;;;;;;;9.17;100.00;99297.56;5093636;28;20056;-86
2022/04/23 01:22:33;;;;;;;17.70;13.35;;;;;;;9.19;100.00;99297.47;5075254;28;20481;-86
2022/04/23 01:25:00;;;;;;;17.15;14.05;;;;;;;9.20;100.00;99300.06;5075396;28;20057;-87
2022/04/23 01:27:28;;;;;;;17.05;13.75;;;;;;;9.24;100.00;99300.81;5093999;28;20099;-85
2022/04/23 01:29:55;;;;;;;16.90;12.93;;;;;;;9.20;100.00;99302.72;5077445;28;20024;-87
2022/04/23 01:32:20;;;;;;;17.58;13.45;;;;;;;9.22;100.00;99303.56;5093462;28;20465;-86
2022/04/23 01:34:46;;;;;;;17.60;13.10;;;;;;;9.22;100.00;99300.91;5075377;28;20035;-86
2022/04/23 01:37:12;;;;;;;17.60;13.60;;;;;;;9.23;100.00;99307.06;5075811;28;20020;-85
2022/04/23 01:39:37;;;;;;;17.70;13.30;;;;;;;9.22;100.00;99306.22;5075499;28;20032;-85
2022/04/23 01:42:02;;;;;;;18.60;13.20;;;;;;;9.20;100.00;99308.06;5075623;28;20438;-86
2022/04/23 01:44:28;;;;;;;17.38;13.20;;;;;;;9.20;100.00;99305.41;5075814;28;20024;-86
2022/04/23 01:46:53;;;;;;;16.58;13.20;;;;;;;9.19;100.00;99306.34;5075353;28;20181;-86
2022/04/23 01:49:18;;;;;;;17.58;12.70;;;;;;;9.16;100.00;99309.13;5093503;28;20443;-85
2022/04/23 01:51:44;;;;;;;16.25;12.80;;;;;;;9.14;100.00;99313.66;5075342;28;20020;-86
2022/04/23 01:54:09;;;;;;;16.77;12.98;;;;;;;9.12;100.00;99312.84;5093592;28;20035;-86
2022/04/23 01:56:34;;;;;;;16.48;12.85;;;;;;;9.13;100.00;99314.56;5075426;28;20028;-87
2022/04/23 01:59:00;;;;;;;17.83;13.73;;;;;;;9.13;100.00;99315.44;5093975;28;20172;-86
2022/04/23 02:01:26;;;;;;;17.00;13.18;;;;;;;9.15;100.00;99323.34;5075013;28;20030;-87
2022/04/23 02:03:51;;;;;;;19.48;13.65;;;;;;;9.14;100.00;99318.97;5075287;28;20022;-86
2022/04/23 02:06:17;;;;;;;17.75;13.02;;;;;;;9.14;100.00;99313.66;5094861;28;20476;-87
2022/04/23 02:08:42;;;;;;;19.02;13.65;;;;;;;9.11;100.00;99311.97;5075793;28;20380;-86
2022/04/23 02:11:07;;;;;;;17.77;13.20;;;;;;;9.11;100.00;99311.09;5092794;28;20024;-84
2022/04/23 02:13:34;;;;;;;15.48;12.45;;;;;;;9.09;100.00;99307.63;5074661;28;20093;-86
2022/04/23 02:15:59;;;;;;;17.02;13.02;;;;;;;9.06;100.00;99305.97;5092928;28;20024;-86
2022/04/23 02:18:26;;;;;;;18.38;13.90;;;;;;;9.04;100.00;99311.38;5074731;28;20029;-86
2022/04/23 02:20:52;;;;;;;16.67;12.95;;;;;;;9.03;100.00;99306.94;5074857;28;20361;-84
2022/04/23 02:23:17;;;;;;;15.82;12.32;;;;;;;9.02;100.00;99307.03;5075321;28;20481;-85
2022/04/23 02:25:42;;;;;;;16.75;12.90;;;;;;;9.02;100.00;99307.03;5075052;28;20039;-86
2022/04/23 02:28:07;;;;;;;19.05;14.27;;;;;;;8.97;100.00;99304.53;5076529;28;20024;-85
2022/04/23 02:30:33;;;;;;;16.23;12.95;;;;;;;8.99;100.00;99302.69;5078544;28;20445;-86
2022/04/23 02:32:59;;;;;;;18.33;13.25;;;;;;;8.99;100.00;99297.38;5096304;28;20020;-85
2022/04/23 02:35:24;;;;;;;16.42;12.85;;;;;;;9.00;100.00;99299.06;5096612;28;20135;-84
2022/04/23 02:37:53;;;;;;;16.52;12.75;;;;;;;9.03;100.00;99290.97;5096423;28;20534;-85
2022/04/23 02:40:19;;;;;;;15.55;12.40;;;;;;;9.04;100.00;99295.38;5078193;28;20031;-83
2022/04/23 02:42:44;;;;;;;15.82;12.75;;;;;;;9.04;100.00;99290.06;5080384;28;20024;-85
2022/04/23 02:45:13;;;;;;;17.73;12.85;;;;;;;9.03;100.00;99290.97;5096515;28;20506;-84
2022/04/23 02:47:42;;;;;;;17.33;12.65;;;;;;;9.05;100.00;99286.44;5078221;28;20122;-84
2022/04/23 02:50:09;;;;;;;16.58;12.27;;;;;;;9.01;100.00;99284.84;5078237;28;20069;-83
2022/04/23 02:52:35;;;;;;;16.23;11.60;;;;;;;9.00;100.00;99287.56;5096112;28;20028;-85
2022/04/23 02:55:00;;;;;;;16.77;12.00;;;;;;;8.99;100.00;99288.50;5096393;28;20024;-85
2022/04/23 02:57:26;;;;;;;15.02;11.85;;;;;;;8.99;100.00;99289.38;5078219;28;20117;-86
2022/04/23 02:59:51;;;;;;;15.55;12.45;;;;;;;8.99;100.00;99285.84;5078622;28;20032;-86
2022/04/23 03:02:17;;;;;;;17.33;12.40;;;;;;;8.96;100.00;99292.16;5096549;28;20385;-86
2022/04/23 03:04:43;;;;;;;17.25;12.43;;;;;;;8.92;100.00;99290.53;5096499;28;20024;-86
2022/04/23 03:07:10;;;;;;;16.25;11.93;;;;;;;8.92;100.00;99280.75;5096426;28;20084;-84
2022/04/23 03:09:36;;;;;;;17.50;12.68;;;;;;;8.92;100.00;99286.06;5096105;28;20028;-85
2022/04/23 03:12:02;;;;;;;17.00;12.50;;;;;;;8.98;100.00;99284.97;5096142;28;20032;-85
2022/04/23 03:14:27;;;;;;;16.60;12.57;;;;;;;8.94;100.00;99291.34;5077985;28;20111;-86
2022/04/23 03:16:52;;;;;;;16.52;12.18;;;;;;;8.89;100.00;99285.34;5095982;28;20104;-85
2022/04/23 03:19:17;;;;;;;18.10;12.77;;;;;;;8.89;100.00;99286.19;5096933;28;20024;-84
2022/04/23 03:21:43;;;;;;;17.40;12.27;;;;;;;8.89;100.00;99294.16;5096020;28;20031;-84
2022/04/23 03:24:08;;;;;;;19.17;12.10;;;;;;;8.90;100.00;99289.72;5077628;28;20103;-85
2022/04/23 03:26:33;;;;;;;17.17;11.85;;;;;;;8.90;100.00;99287.06;5096395;28;20028;-85
2022/04/23 03:28:59;;;;;;;17.83;12.10;;;;;;;8.88;100.00;99288.91;5077850;28;20500;-84
2022/04/23 03:31:24;;;;;;;15.68;11.52;;;;;;;8.85;100.00;99295.22;5078241;28;20027;-84
2022/04/23 03:33:49;;;;;;;16.25;11.95;;;;;;;8.83;100.00;99291.75;5095716;28;20126;-84
2022/04/23 03:36:16;;;;;;;17.02;12.13;;;;;;;8.79;100.00;99296.31;5096335;28;20024;-85
2022/04/23 03:38:42;;;;;;;16.52;11.70;;;;;;;8.77;100.00;99292.88;5078264;28;20034;-86
2022/04/23 03:41:10;;;;;;;17.58;11.98;;;;;;;8.75;100.00;99292.06;5077071;28;20107;-82
2022/04/23 03:43:36;;;;;;;19.55;12.68;;;;;;;8.72;100.00;99292.16;5077634;28;20027;-83
2022/04/23 03:46:01;;;;;;;16.92;12.15;;;;;;;8.71;100.00;99288.63;5077446;28;20020;-85
2022/04/23 03:48:26;;;;;;;17.17;12.13;;;;;;;8.70;100.00;99302.88;5077472;28;20366;-85
2022/04/23 03:50:52;;;;;;;14.57;11.25;;;;;;;8.65;100.00;99302.19;5095586;28;20023;-87
2022/04/23 03:53:18;;;;;;;15.65;11.52;;;;;;;8.63;100.00;99296.06;5095158;28;20020;-84
2022/04/23 03:55:43;;;;;;;17.63;11.90;;;;;;;8.58;100.00;99298.88;5078851;28;20115;-85
2022/04/23 03:58:08;;;;;;;16.33;11.60;;;;;;;8.58;100.00;99298.00;5076861;28;20028;-85
2022/04/23 04:00:34;;;;;;;16.92;11.88;;;;;;;8.57;100.00;99302.44;5077048;28;20115;-85
2022/04/23 04:03:00;;;;;;;15.88;11.13;;;;;;;8.49;100.00;99294.75;5076741;28;20426;-84
2022/04/23 04:05:26;;;;;;;16.75;11.30;;;;;;;8.45;100.00;99292.28;5095528;28;20073;-86
2022/04/23 04:07:52;;;;;;;18.88;11.70;;;;;;;8.34;100.00;99288.22;5077446;28;20119;-85
2022/04/23 04:10:22;;;;;;;17.33;12.10;;;;;;;8.31;100.00;99290.09;5077867;28;20107;-84
2022/04/23 04:12:48;;;;;;;16.15;11.52;;;;;;;8.21;100.00;99294.91;5076811;28;20020;-86
2022/04/23 04:15:17;;;;;;;16.52;11.57;;;;;;;8.14;100.00;99296.94;5095173;28;20020;-86
2022/04/23 04:17:44;;;;;;;18.92;12.23;;;;;;;8.05;100.00;99306.97;5094782;28;20030;-84
2022/04/23 04:20:14;;;;;;;17.70;11.73;;;;;;;8.05;100.00;99306.09;5094912;28;20430;-85
2022/04/23 04:22:44;;;;;;;18.80;12.52;;;;;;;8.03;100.00;99302.63;5094840;28;20427;-86
2022/04/23 04:25:11;;;;;;;18.35;11.88;;;;;;;7.96;100.00;99311.75;5094672;28;20020;-85
2022/04/23 04:27:38;;;;;;;17.05;11.80;;;;;;;7.93;100.00;99308.28;5076867;28;20396;-85
2022/04/23 04:30:11;;;;;;;17.40;11.70;;;;;;;7.91;100.00;99304.78;5094780;28;20038;-85
2022/04/23 04:32:38;;;;;;;15.68;11.35;;;;;;;7.77;100.00;99302.63;5078826;28;20028;-85
2022/04/23 04:35:04;;;;;;;17.27;12.30;;;;;;;7.80;100.00;99307.81;5076512;28;20103;-84
2022/04/23 04:37:30;;;;;;;16.17;11.88;;;;;;;7.76;100.00;99310.63;5059780;28;20489;-84
2022/04/23 04:39:55;;;;;;;19.35;11.93;;;;;;;7.71;100.00;99306.34;5078234;28;20030;-85
2022/04/23 04:42:21;;;;;;;17.88;11.75;;;;;;;7.67;100.00;99307.38;5076943;28;20066;-86
2022/04/23 04:44:47;;;;;;;18.02;12.27;;;;;;;7.63;100.00;99311.03;5094423;28;20098;-85
2022/04/23 04:47:12;;;;;;;18.25;12.57;;;;;;;7.59;100.00;99309.41;5094770;28;20031;-84
2022/04/23 04:49:38;;;;;;;18.63;12.77;;;;;;;7.64;100.00;99312.78;5095147;28;20032;-85
2022/04/23 04:52:04;;;;;;;18.83;12.52;;;;;;;7.60;100.00;99311.16;5076626;28;20553;-85
2022/04/23 04:54:30;;;;;;;19.58;11.77;;;;;;;7.60;100.00;99316.47;5077045;28;20378;-84
2022/04/23 04:56:56;;;;;;;19.63;12.02;;;;;;;7.60;100.00;99316.47;5095239;28;20547;-84
2022/04/23 04:59:22;;;;;;;18.38;12.35;;;;;;;7.59;100.00;99328.88;5094915;28;20024;-85
2022/04/23 05:01:48;;;;;;;20.27;12.38;;;;;;;7.57;100.00;99316.56;5076456;28;20031;-84
2022/04/23 05:04:14;;;;;;;19.90;12.73;;;;;;;7.60;100.00;99332.41;5078407;28;20437;-86
2022/04/23 05:06:39;;;;;;;17.33;12.15;;;;;;;7.53;100.00;99330.84;5078117;28;20023;-86
2022/04/23 05:09:04;;;;;;;18.80;11.80;;;;;;;7.57;100.00;99335.16;5095556;28;20028;-86
2022/04/23 05:11:30;;;;;;;17.80;12.02;;;;;;;7.57;100.00;99348.44;5075990;28;20447;-86
2022/04/23 05:13:55;;;;;;;18.60;12.20;;;;;;;7.63;100.00;99342.91;5077759;28;20023;-87
2022/04/23 05:16:21;;;;;;;18.67;12.65;;;;;;;7.62;100.00;99341.19;5100919;28;20035;-86
2022/04/23 05:18:46;;;;;;;16.27;11.45;;;;;;;7.72;100.00;99344.41;5082640;28;20027;-86
2022/04/23 05:21:11;;;;;;;19.70;12.13;;;;;;;7.71;100.00;99335.56;5100756;28;20451;-86
2022/04/23 05:23:37;;;;;;;18.40;11.85;;;;;;;7.80;100.00;99339.72;5100431;28;20024;-87
2022/04/23 05:26:03;;;;;;;16.67;11.07;;;;;;;7.83;100.00;99338.75;5100852;28;20027;-85
2022/04/23 05:28:29;;;;;;;18.08;11.60;;;;;;;7.80;100.00;99345.03;5081212;28;20024;-83
2022/04/23 05:30:55;;;;;;;16.98;11.52;;;;;;;7.75;100.00;99340.78;5080030;28;20044;-83
2022/04/23 05:33:20;;;;;;;19.23;12.38;;;;;;;7.76;100.00;99343.38;5098419;28;20031;-85
2022/04/23 05:35:45;;;;;;;17.23;11.32;;;;;;;7.76;100.00;99338.06;5098447;28;20483;-82
2022/04/23 05:38:11;;;;;;;17.83;11.77;;;;;;;7.76;100.00;99345.16;5097109;28;20032;-82
2022/04/23 05:40:36;;;;;;;18.00;11.90;;;;;;;7.77;100.00;99338.94;5079846;28;20500;-84
2022/04/23 05:43:01;;;;;;;16.95;11.60;;;;;;;7.80;100.00;99344.16;5097415;28;20028;-82
2022/04/23 05:45:28;;;;;;;16.98;11.68;;;;;;;7.81;100.00;99345.88;5096384;28;20020;-81
2022/04/23 05:47:54;;;;;;;15.75;11.65;;;;;;;7.82;100.00;99347.63;5093749;28;20035;-81
2022/04/23 05:50:19;;;;;;;19.30;12.55;;;;;;;7.83;100.00;99347.56;5075641;28;20026;-79
2022/04/23 05:52:45;;;;;;;19.60;12.50;;;;;;;7.84;100.00;99351.09;5093567;28;20020;-82
2022/04/23 05:55:11;;;;;;;17.35;12.05;;;;;;;7.87;100.00;99356.31;5075512;28;20060;-81
2022/04/23 05:57:37;;;;;;;17.42;11.77;;;;;;;7.89;100.00;99354.47;5075438;28;20069;-80
2022/04/23 06:00:07;;;;;;;17.33;11.63;;;;;;;7.88;100.00;99352.75;5075376;28;20020;-82
2022/04/23 06:02:33;;;;;;;18.90;11.68;;;;;;;7.94;100.00;99355.19;5076022;28;20042;-81
2022/04/23 06:04:58;;;;;;;18.63;12.60;;;;;;;7.93;100.00;99350.81;5079590;28;20085;-81
2022/04/23 06:07:24;;;;;;;19.08;12.68;;;;;;;7.94;100.00;99359.63;5079895;28;20024;-81
2022/04/23 06:09:49;;;;;;;16.45;11.45;;;;;;;7.99;100.00;99360.34;5097652;28;20028;-81
2022/04/23 06:12:15;;;;;;;18.20;12.25;;;;;;;8.03;100.00;99359.31;5079187;28;20028;-82
2022/04/23 06:14:40;;;;;;;19.02;12.27;;;;;;;8.04;100.00;99349.56;5079369;28;20081;-81
2022/04/23 06:17:15;;;;;;;17.52;11.73;;;;;;;8.07;100.00;99362.72;5079650;28;20024;-81
2022/04/23 06:19:40;;;;;;;15.45;11.27;;;;;;;8.18;100.00;99364.16;5097488;28;20047;-82
2022/04/23 06:22:05;;;;;;;17.63;12.38;;;;;;;8.21;100.00;99364.03;5121107;22;20047;-84
2022/04/23 06:24:32;;;;;;;15.77;11.98;;;;;;;8.19;100.00;99368.56;5097942;28;20024;-84
2022/04/23 06:26:57;;;;;;;17.58;12.57;;;;;;;8.24;100.00;99369.25;5097559;28;20028;-84
2022/04/23 06:29:22;;;;;;;17.27;11.55;;;;;;;8.23;100.00;99367.50;5097607;28;20080;-84
2022/04/23 06:31:47;;;;;;;16.92;11.98;;;;;;;8.29;100.00;99369.97;5079812;28;20024;-85
2022/04/23 06:34:13;;;;;;;16.83;12.52;;;;;;;8.31;100.00;99375.22;5097430;28;20099;-83
2022/04/23 06:36:39;;;;;;;15.68;11.60;;;;;;;8.32;100.00;99364.56;5096842;28;20377;-84
2022/04/23 06:39:04;;;;;;;15.65;11.75;;;;;;;8.37;99.25;99359.94;5096799;28;20472;-84
2022/04/23 06:41:30;;;;;;;15.27;11.70;;;;;;;8.44;98.50;99375.66;5099601;28;20039;-84
2022/04/23 06:43:55;;;;;;;15.52;12.10;;;;;;;8.42;97.93;99372.19;5079982;28;20081;-84
2022/04/23 06:46:20;;;;;;;16.25;11.32;;;;;;;8.47;97.70;99378.22;5097730;28;20020;-85
2022/04/23 06:48:45;;;;;;;17.35;11.50;;;;;;;8.57;97.69;99374.28;5098116;28;20028;-85
2022/04/23 06:51:11;;;;;;;17.25;11.98;;;;;;;8.53;96.77;99370.00;5080491;28;20034;-84
2022/04/23 06:53:36;;;;;;;16.95;11.68;;;;;;;8.62;95.73;99373.28;5104332;28;20061;-84
2022/04/23 06:56:03;;;;;;;15.35;11.13;;;;;;;8.69;96.54;99372.13;5084589;28;20431;-84
2022/04/23 06:58:28;;;;;;;16.02;10.90;;;;;;;8.68;95.49;99373.06;5099113;28;20027;-84
2022/04/23 07:00:53;;;;;;;20.48;11.30;;;;;;;8.76;95.94;99370.97;5098356;28;20020;-84
2022/04/23 07:03:19;;;;;;;21.70;12.18;;;;;;;8.82;95.10;99370.75;5084660;28;20012;-85
2022/04/23 07:05:44;;;;;;;16.52;11.88;;;;;;;8.85;95.20;99360.91;5103553;28;20478;-84
2022/04/23 07:08:10;;;;;;;17.00;11.15;;;;;;;8.90;97.67;99375.78;5083293;28;20020;-84
2022/04/23 07:10:36;;;;;;;15.68;11.13;;;;;;;8.97;93.68;99362.25;5080656;28;20419;-85
2022/04/23 07:13:01;;;;;;;16.88;11.57;;;;;;;9.04;92.91;99364.63;5100139;28;20024;-84
2022/04/23 07:15:28;;;;;;;16.25;11.80;;;;;;;9.09;92.84;99372.44;5078217;28;20381;-85
2022/04/23 07:17:54;;;;;;;17.52;10.82;;;;;;;9.10;91.51;99368.81;5081587;28;20020;-84
2022/04/23 07:20:19;;;;;;;16.00;10.95;;;;;;;9.25;92.63;99372.69;5102161;28;20020;-84
2022/04/23 07:25:35;;;;;;;14.13;10.82;;;;;;;9.41;91.82;99366.75;5099560;28;20397;-85
2022/04/23 07:28:00;;;;;;;14.85;10.88;;;;;;;9.54;89.80;99371.56;5080945;28;20455;-85
2022/04/23 07:30:27;;;;;;;14.75;10.57;;;;;;;9.60;91.33;99366.88;5079011;28;20538;-86
2022/04/23 07:32:53;;;;;;;14.32;9.98;;;;;;;9.77;89.43;99369.75;5098668;28;20104;-85
2022/04/23 07:38:12;;;;;;;15.27;10.23;;;;;;;9.98;88.62;99364.47;5096398;28;20077;-84
2022/04/23 07:40:41;;;;;;;17.35;10.50;;;;;;;10.13;88.79;99366.47;5099127;28;20027;-85
2022/04/23 07:43:18;;;;;;;14.68;10.07;;;;;;;10.15;84.61;99367.25;5096446;28;20504;-85
2022/04/23 07:46:05;;;;;;;;;;;;;;;;;;;;;
2022/04/23 07:48:32;;;;;;;14.18;9.82;;;;;;;10.20;83.74;99369.75;5096757;28;20111;-86
2022/04/23 07:50:57;;;;;;;15.50;9.93;;;;;;;10.26;82.80;99368.59;5075629;28;20476;-85
2022/04/23 07:53:40;;;;;;;15.18;10.32;;;;;;;10.34;83.81;99361.13;5097559;28;20020;-83
2022/04/23 07:56:05;;;;;;;13.40;10.00;;;;;;;10.37;82.98;99353.00;5096070;28;20114;-84
2022/04/23 07:58:43;;;;;;;14.38;8.75;;;;;;;10.55;82.40;99366.50;5096039;28;20044;-84
2022/04/23 08:01:29;;;;;;;12.90;9.48;;;;;;;10.64;81.15;99361.69;5098985;28;20390;-84
2022/04/23 08:03:54;;;;;;;16.23;10.50;;;;;;;10.68;82.57;99363.25;5066198;28;20028;-86
2022/04/23 08:06:20;;;;;;;14.18;10.48;;;;;;;10.68;80.81;99357.91;5077698;28;20112;-85
2022/04/23 08:08:45;;;;;;;14.30;10.10;;;;;;;10.75;79.44;99369.16;5078153;28;20024;-89
2022/04/23 08:11:14;;;;;;;17.15;9.85;;;;;;;10.77;78.24;99362.81;5077864;28;20434;-85
2022/04/23 08:13:57;;;;;;;13.10;9.68;;;;;;;10.79;80.22;99366.31;5097212;28;20023;-86
2022/04/23 08:16:45;;;;;;;12.85;9.93;;;;;;;10.84;77.87;99364.31;5079787;28;20180;-86
2022/04/23 08:19:13;;;;;;;13.98;9.82;;;;;;;11.01;78.78;99365.31;5081313;28;20028;-85
2022/04/23 08:22:43;;;;;;;12.77;10.00;;;;;;;10.97;77.34;99358.38;5097558;28;20035;-87
2022/04/23 08:25:10;;;;;;;12.80;9.60;;;;;;;10.86;76.79;99358.00;5049274;28;20043;-84
2022/04/23 08:30:34;;;;;;;13.75;10.20;;;;;;;11.08;79.15;99365.03;5094620;28;20409;-87
2022/04/23 08:30:40;;;;;;;14.75;11.52;;;;;;;11.13;77.73;99366.53;5094699;28;20099;-85
2022/04/23 08:33:07;;;;;;;13.15;10.70;;;;;;;11.13;76.30;99347.81;5095757;28;20117;-85
2022/04/23 08:35:34;;;;;;;14.25;10.70;;;;;;;11.26;78.30;99352.59;5080115;28;20043;-85
2022/04/23 08:38:00;;;;;;;13.32;10.73;;;;;;;11.39;77.70;99352.88;5097362;28;20099;-85
2022/04/23 08:40:29;;;;;;;14.05;10.43;;;;;;;11.46;76.73;99369.47;5076369;28;20026;-88
2022/04/23 08:42:56;;;;;;;13.73;10.27;;;;;;;11.35;76.06;99361.97;5094316;28;20412;-87
2022/04/23 08:45:22;;;;;;;13.98;10.40;;;;;;;11.59;77.69;99364.41;5094831;28;20095;-86
2022/04/23 08:47:48;;;;;;;13.60;10.85;;;;;;;11.70;76.55;99369.22;5094392;28;20031;-85
2022/04/23 08:50:18;;;;;;;14.65;10.02;;;;;;;11.78;74.96;99367.00;5093925;28;20024;-87
2022/04/23 08:52:51;;;;;;;15.88;10.35;;;;;;;11.96;76.63;99365.22;5094075;28;20397;-85
2022/04/23 08:55:18;;;;;;;13.98;10.55;;;;;;;11.86;72.27;99366.63;5094593;28;20027;-86
2022/04/23 08:57:43;;;;;;;12.50;9.52;;;;;;;11.73;73.95;99361.88;5094200;28;20118;-84
2022/04/23 09:00:11;;;;;;;14.35;10.13;;;;;;;12.15;74.25;99361.63;5075987;28;20483;-83
2022/04/23 09:02:37;;;;;;;12.77;9.65;;;;;;;12.13;73.90;99366.22;5075789;28;20031;-85
2022/04/23 09:05:02;;;;;;;13.52;9.70;;;;;;;12.14;73.54;99359.88;5093821;28;20057;-84
2022/04/23 09:07:29;;;;;;;13.88;10.70;;;;;;;12.42;72.26;99364.78;5075458;28;20020;-84
2022/04/23 09:09:57;;;;;;;14.07;9.88;;;;;;;12.53;72.15;99365.03;5075596;28;20028;-85
2022/04/23 09:13:34;;;;;;;;;;;;;;;;;;;;;
2022/04/23 09:24:45;;;;;;;;;;;;;;;13.14;66.53;99359.09;5094726;28;20074;-84
2022/04/23 09:27:11;;;;;;;11.55;8.07;;;;;;;13.37;63.09;99348.91;5091329;28;19950;-84
2022/04/23 09:29:36;;;;;;;11.00;8.60;;;;;;;13.59;62.72;99353.06;5076842;28;20138;-85
2022/04/23 09:32:09;;;;;;;10.93;8.52;;;;;;;13.75;62.34;99352.19;5075358;28;20055;-86
2022/04/23 09:34:35;;;;;;;10.68;8.73;;;;;;;13.62;61.31;99342.16;5093915;28;20358;-85
2022/04/23 09:40:19;;;;;;;12.07;8.38;;;;;;;13.88;61.29;99346.94;5098300;28;20503;-85
2022/04/23 09:43:11;;;;;;;10.57;7.85;;;;;;;13.62;58.49;99354.72;5097638;28;20024;-87
2022/04/23 09:45:46;;;;;;;10.05;7.90;;;;;;;13.73;60.34;99346.03;5094212;28;20531;-84
2022/04/23 09:48:18;;;;;;;10.35;7.25;;;;;;;13.74;56.85;99345.94;5097971;28;20473;-86
2022/04/23 09:50:56;;;;;;;9.30;7.00;;;;;;;13.89;58.57;99348.66;5097922;28;20048;-87
2022/04/23 09:53:25;;;;;;;9.73;7.20;;;;;;;14.05;57.40;99337.00;5097308;28;20036;-86
2022/04/23 09:56:13;;;;;;;;;;;;;;;;;;;;;
2022/04/23 09:58:39;;;;;;;12.13;8.27;;;;;;;14.25;56.97;99340.34;5098160;28;20027;-87
2022/04/23 10:01:07;;;;;;;8.77;6.93;;;;;;;14.15;58.57;99340.88;5080187;28;20106;-87
2022/04/23 10:03:33;;;;;;;9.75;7.10;;;;;;;14.23;57.64;99336.84;5078766;28;20049;-85
2022/04/23 10:06:00;;;;;;;9.60;7.63;;;;;;;14.34;57.45;99346.94;5079668;28;20024;-87
2022/04/23 10:08:32;;;;;;;8.93;7.45;;;;;;;14.60;56.40;99339.97;5079171;28;20020;-87
2022/04/23 10:11:14;;;;;;;9.57;6.93;;;;;;;14.61;54.90;99349.75;5079168;28;20024;-85
2022/04/23 10:13:44;;;;;;;10.93;7.63;;;;;;;14.81;53.55;99344.09;5097102;28;20016;-87
2022/04/23 10:16:10;;;;;;;10.55;7.68;;;;;;;14.74;55.82;99343.63;5079298;28;20089;-86
2022/04/23 10:18:38;;;;;;;10.75;7.50;;;;;;;14.66;54.49;99344.13;5099968;28;20044;-88
2022/04/23 10:21:08;;;;;;;10.60;7.45;;;;;;;14.63;55.14;99355.91;5099938;28;20099;-85
2022/04/23 10:23:46;;;;;;;9.82;7.43;;;;;;;14.71;54.05;99349.19;5063787;28;20397;-87
2022/04/23 10:26:38;;;;;;;10.25;7.85;;;;;;;14.82;53.12;99341.31;5097985;28;20020;-88
2022/04/23 10:29:10;;;;;;;11.48;7.88;;;;;;;14.72;52.98;99334.78;5098245;28;20024;-87
2022/04/23 10:31:36;;;;;;;10.43;7.63;;;;;;;14.08;51.43;99331.47;5097367;28;20137;-86
2022/04/23 10:34:02;;;;;;;10.95;7.43;;;;;;;14.69;51.33;99332.31;5079755;28;20046;-85
2022/04/23 10:36:28;;;;;;;8.88;7.35;;;;;;;15.02;52.07;99325.78;5079090;28;20032;-89
2022/04/23 10:39:20;;;;;;;10.30;7.55;;;;;;;14.85;51.86;99324.13;5080024;28;20028;-86
2022/04/23 10:41:46;;;;;;;10.82;7.55;;;;;;;14.95;51.11;99319.03;5078175;28;20043;-86
2022/04/23 10:44:12;;;;;;;9.02;7.05;;;;;;;15.39;50.78;99324.31;5078672;28;20071;-91
2022/04/23 10:46:37;;;;;;;12.52;7.75;;;;;;;14.94;50.65;99333.47;5078530;28;20032;-87
2022/04/23 10:49:14;;;;;;;9.80;7.07;;;;;;;15.35;51.15;99331.75;5078411;28;20039;-87
2022/04/23 10:52:06;;;;;;;9.52;7.03;;;;;;;15.52;48.91;99325.25;5096266;28;20808;-87
2022/04/23 10:54:40;;;;;;;9.50;7.45;;;;;;;15.56;50.56;99328.59;5092049;28;20044;-87
2022/04/23 10:57:13;;;;;;;9.52;7.00;;;;;;;15.49;49.64;99332.63;5096589;28;20485;-87
2022/04/23 10:59:52;;;;;;;9.50;7.65;;;;;;;14.99;51.52;99325.97;5096809;28;20028;-88
2022/04/23 11:02:24;;;;;;;8.25;7.05;;;;;;;15.04;49.90;99329.22;5078506;28;20031;-86
2022/04/23 11:13:31;;;;;;;11.38;7.53;;;;;;;15.39;47.53;99332.38;5096545;28;20070;-85
2022/04/23 11:16:19;;;;;;;9.73;7.25;;;;;;;15.40;47.32;99323.38;5096411;28;20030;-89
2022/04/23 11:18:46;;;;;;;9.55;7.40;;;;;;;16.03;49.09;99317.38;5095865;28;20030;-89
2022/04/23 11:21:24;;;;;;;10.02;7.07;;;;;;;15.98;48.15;99317.72;5096377;28;20020;-86
2022/04/23 11:23:51;;;;;;;10.68;7.38;;;;;;;15.70;46.27;99324.09;5077820;28;20070;-86
2022/04/23 11:26:19;;;;;;;8.77;6.60;;;;;;;15.96;46.56;99327.72;5095529;28;20432;-88
2022/04/23 11:28:56;;;;;;;9.38;6.95;;;;;;;16.01;46.29;99321.16;5095688;28;20020;-89
2022/04/23 11:31:21;;;;;;;9.63;7.13;;;;;;;16.14;46.65;99322.06;5077405;28;20077;-88
2022/04/23 11:33:56;;;;;;;10.57;7.60;;;;;;;16.37;45.60;99322.31;5095149;28;20024;-90
2022/04/23 11:36:36;;;;;;;12.10;7.53;;;;;;;16.20;43.70;99312.72;5096037;28;20081;-87
2022/04/23 11:39:09;;;;;;;10.45;6.68;;;;;;;16.00;46.31;99314.06;5077576;28;20542;-88
2022/04/23 11:41:42;;;;;;;8.23;6.38;;;;;;;15.84;46.05;99310.59;5077273;28;20020;-88
2022/04/23 11:44:15;;;;;;;8.73;7.00;;;;;;;16.08;44.99;99309.06;5095928;28;20116;-88
2022/04/23 11:46:48;;;;;;;7.53;6.57;;;;;;;16.12;45.94;99310.56;5095441;28;20028;-90
2022/04/23 11:49:30;;;;;;;9.98;7.40;;;;;;;16.30;47.85;99305.72;5095627;28;20027;-89
2022/04/23 11:52:05;;;;;;;8.05;6.55;;;;;;;16.31;43.86;99303.91;5078531;28;20488;-87
2022/04/23 11:54:50;;;;;;;9.93;6.78;;;;;;;16.37;44.66;99298.06;5095787;28;20044;-89
2022/04/23 11:57:18;;;;;;;9.27;6.32;;;;;;;16.59;44.06;99303.75;5095009;28;20038;-88